Nearby METAR Reports

 

KBML - Berlin, NH
Updated: Thu, 29-Jun-2017 4:52am EDT
Fog, Overcast
Fog, Overcast
 Wind from calm
Wind: Calm
Temperature: 45°F , 7°C
Dew Point: 43°F , 6°C
Humidity: 93%
Barometer: 30.09 inHg , 1019 hPa
Summary: Fog
Clouds: Overcast
Visibility: 1/4 mile , 2 km
Cloud details: Overcast 100 ft
2017/06/29 08:52 KBML 290852Z AUTO 00000KT 1/4SM FG VV001 07/06 A3009 RMK AO2 SLP192 T00720061 53005
KCON - Concord, NH
Updated: Thu, 29-Jun-2017 4:51am EDT
Mostly cloudy
Mostly cloudy
 Wind from calm
Wind: Calm
Temperature: 54°F , 12°C
Dew Point: 52°F , 11°C
Humidity: 94%
Barometer: 30.09 inHg , 1019 hPa
Clouds: Mostly cloudy
Visibility: 10 miles , 16 km
Cloud details: Partly cloudy 7000 ft
Mostly cloudy 9000 ft
2017/06/29 08:51 KCON 290851Z AUTO 00000KT 10SM SCT070 BKN090 12/11 A3009 RMK AO2 SLP190 T01170106 51005
KAFN - Lebanon, NH
Updated: Thu, 29-Jun-2017 4:52am EDT
Clear
Clear
 Wind from calm
Wind: Calm
Temperature: 54°F , 12°C
Dew Point: 54°F , 12°C
Humidity: 100%
Barometer: 30.12 inHg , 1020 hPa
Clouds: Clear
Visibility: 10 miles , 16 km
2017/06/29 08:52 KAFN 290852Z AUTO 00000KT 10SM CLR 12/12 A3012 RMK AO2 SLP204 T01170117 53004 TSNO
 
KMHT - Manchester, NH
Updated: Thu, 29-Jun-2017 4:53am EDT
Mostly cloudy
Mostly cloudy
 Wind from calm
Wind: Calm
Temperature: 59°F , 15°C
Dew Point: 52°F , 11°C
Humidity: 77%
Barometer: 30.08 inHg , 1018.6 hPa
Clouds: Mostly cloudy
Visibility: 10 miles , 16 km
Cloud details: Few Clouds 7000 ft
Partly cloudy 9000 ft
Mostly cloudy 20000 ft
2017/06/29 08:53 KMHT 290853Z 00000KT 10SM FEW070 SCT090 BKN200 15/11 A3008 RMK AO2 SLP197 T01500106 51004
KMWN - Mount Washington
Updated: Thu, 29-Jun-2017 4:49am EDT
Fog, Overcast
Fog, Overcast
 Wind from W
Wind: W 36 mph , 57 km/h
Temperature: 39°F , 4°C
Wind Chill: 26°F , -3°C
Dew Point: 39°F , 4°C
Humidity: 100%
Summary: Fog
Clouds: Overcast
Visibility: 1/16 mile , 2 km
Cloud details: Overcast 0 ft
2017/06/29 08:49 KMWN 290849Z 27031KT 1/16SM FG VV000 04/04 RMK FG INTMT
K25B - Portsmouth Harbor
Updated: Wed, 31-Dec-1969 7:00pm EST
NOT Current
unable to load K25B data RC=404 Not Found
unable to load K25B data RC=404 Not Found
 
 
KDDH - Bennington, VT
Updated: Thu, 29-Jun-2017 4:54am EDT
Few Clouds
Few Clouds
 Wind from calm
Wind: Calm
Temperature: 54°F , 12°C
Dew Point: 52°F , 11°C
Humidity: 94%
Barometer: 30.11 inHg , 1019.6 hPa
Clouds: Few Clouds
Visibility: 9 miles , 14 km
Cloud details: Few Clouds 9000 ft
2017/06/29 08:54 KDDH 290854Z AUTO 00000KT 9SM FEW090 12/11 A3011 RMK AO2 SLP194 T01220106 53005
K9B2 - Newport, VT
Updated: Wed, 31-Dec-1969 7:00pm EST
NOT Current
unable to load K9B2 data RC=404 Not Found
unable to load K9B2 data RC=404 Not Found
 
K1V4 - St Johnsbury, VT
Updated: Thu, 29-Jun-2017 4:54am EDT

 
Temperature: 50°F , 10°C
Dew Point: 50°F , 10°C
Humidity: 100%
Barometer: 30.08 inHg , 1018.6 hPa
2017/06/29 08:54 K1V4 290854Z AUTO 10/10 A3008 RMK AO1 SLP181 T01000100 53008
 
KBGR - Bangor, ME
Updated: Thu, 29-Jun-2017 4:53am EDT
Partly cloudy
Partly cloudy
 Wind from calm
Wind: Calm
Temperature: 52°F , 11°C
Dew Point: 50°F , 10°C
Humidity: 94%
Barometer: 30.05 inHg , 1017.6 hPa
Clouds: Partly cloudy
Visibility: 10 miles , 16 km
Cloud details: Few Clouds 11000 ft
Partly cloudy 20000 ft
2017/06/29 08:53 KBGR 290853Z 00000KT 10SM FEW110 SCT200 11/10 A3005 RMK AO2 SLP176 T01060100 53008
KBHB - Bar Harbor, ME
Updated: Thu, 29-Jun-2017 4:56am EDT
Clear
Clear
 Wind from calm
Wind: Calm
Temperature: 52°F , 11°C
Dew Point: 50°F , 10°C
Humidity: 94%
Barometer: 30.06 inHg , 1017.9 hPa
Clouds: Clear
Visibility: 7 miles , 11 km
2017/06/29 08:56 KBHB 290856Z AUTO 00000KT 7SM CLR 11/10 A3006 RMK AO2 SLP182 T01060100 53007 $
74389 - Gray, ME
Updated: Wed, 31-Dec-1969 7:00pm EST
NOT Current
74389 not loaded
74389 not loaded
 
 
KGNR - Greenville,ME
Updated: Thu, 29-Jun-2017 4:56am EDT

 Wind from calm
Wind: Calm
Temperature: 54°F , 12°C
Dew Point: 52°F , 11°C
Humidity: 94%
Barometer: 30.03 inHg , 1016.9 hPa
2017/06/29 08:56 KGNR 290856Z AUTO 00000KT 12/11 A3003 RMK AO1 SLP173 T01220106 53009
KOLD - Old Town, ME
Updated: Wed, 31-Dec-1969 7:00pm EST
NOT Current
unable to load KOLD data RC=404 Not Found
unable to load KOLD data RC=404 Not Found
 
KRUM - Rumford, ME
Updated: Wed, 31-Dec-1969 7:00pm EST
NOT Current
unable to load KRUM data RC=404 Not Found
unable to load KRUM data RC=404 Not Found
 






USA Weather Finder


World Weather Websites





Hit Counter
Contact Us

© 2017, johnsnhweather | Weather-Display (10.37S-(b53)) | Valid XHTML 1.0 | Valid CSS

This website is neither affiliated with nor endorsed by the National Weather Service, the town of Pittsburg or any other government agency.
The weather data contained herein is offered without any warranties expressed or implied, and is meant to supplement NOAA weather forecasts and information. Never base important decisions that could result in harm to people or property on this weather information.